createdAt,value
2022-12-17T00:01:07.295Z,10.68
2022-12-17T00:03:33.829Z,10.68
2022-12-17T00:06:00.672Z,10.67
2022-12-17T00:08:27.172Z,10.66
2022-12-17T00:10:53.462Z,10.67
2022-12-17T00:13:19.788Z,10.66
2022-12-17T00:15:46.259Z,10.65
2022-12-17T00:18:12.612Z,10.65
2022-12-17T00:20:38.938Z,10.65
2022-12-17T00:23:05.232Z,10.63
2022-12-17T00:25:31.550Z,10.63
2022-12-17T00:27:57.851Z,10.63
2022-12-17T00:30:24.179Z,10.64
2022-12-17T00:32:50.572Z,10.62
2022-12-17T00:35:16.976Z,10.61
2022-12-17T00:37:43.358Z,10.61
2022-12-17T00:40:09.727Z,10.62
2022-12-17T00:42:36.229Z,10.60
2022-12-17T00:45:02.562Z,10.60
2022-12-17T00:47:28.851Z,10.59
2022-12-17T00:49:56.171Z,10.58
2022-12-17T00:52:22.603Z,10.58
2022-12-17T00:54:48.930Z,10.57
2022-12-17T00:57:15.195Z,10.57
2022-12-17T00:59:41.466Z,10.56
2022-12-17T01:02:07.804Z,10.54
2022-12-17T01:04:34.218Z,10.55
2022-12-17T01:07:00.503Z,10.58
2022-12-17T01:09:26.823Z,10.56
2022-12-17T01:11:53.112Z,10.54
2022-12-17T01:14:23.017Z,10.55
2022-12-17T01:16:49.511Z,10.55
2022-12-17T01:19:16.085Z,10.55
2022-12-17T01:21:42.367Z,10.54
2022-12-17T01:24:08.687Z,10.51
2022-12-17T01:26:35.115Z,10.50
2022-12-17T01:29:01.369Z,10.51
2022-12-17T01:31:32.927Z,10.49
2022-12-17T01:34:01.096Z,10.50
2022-12-17T01:36:27.373Z,10.50
2022-12-17T01:38:53.907Z,10.50
2022-12-17T01:41:20.214Z,10.48
2022-12-17T01:43:46.522Z,10.48
2022-12-17T01:46:12.900Z,10.48
2022-12-17T01:48:39.332Z,10.48
2022-12-17T01:51:05.853Z,10.46
2022-12-17T01:53:32.229Z,10.46
2022-12-17T01:55:58.620Z,10.47
2022-12-17T01:58:24.894Z,10.45
2022-12-17T02:00:51.315Z,10.44
2022-12-17T02:03:17.724Z,10.45
2022-12-17T02:05:44.245Z,10.45
2022-12-17T02:08:10.745Z,10.45
2022-12-17T02:10:41.194Z,10.44
2022-12-17T02:13:09.392Z,10.44
2022-12-17T02:15:35.682Z,10.43
2022-12-17T02:18:01.963Z,10.44
2022-12-17T02:20:28.360Z,10.42
2022-12-17T02:22:54.640Z,10.42
2022-12-17T02:25:21.155Z,10.41
2022-12-17T02:27:47.405Z,10.41
2022-12-17T02:30:13.848Z,10.40
2022-12-17T02:32:40.182Z,10.39
2022-12-17T02:35:06.656Z,10.41
2022-12-17T02:37:33.049Z,10.39
2022-12-17T02:39:59.304Z,10.40
2022-12-17T02:42:25.566Z,10.41
2022-12-17T02:44:51.904Z,10.40
2022-12-17T02:47:18.167Z,10.40
2022-12-17T02:49:44.435Z,10.38
2022-12-17T02:52:10.687Z,10.38
2022-12-17T02:54:36.950Z,10.38
2022-12-17T02:57:03.244Z,10.37
2022-12-17T02:59:29.576Z,10.38
2022-12-17T03:01:56.281Z,10.36
2022-12-17T03:04:22.885Z,10.36
2022-12-17T03:06:49.267Z,10.37
2022-12-17T03:09:15.504Z,10.34
2022-12-17T03:11:41.807Z,10.33
2022-12-17T03:14:08.100Z,10.34
2022-12-17T03:16:37.785Z,10.33
2022-12-17T03:19:04.551Z,10.34
2022-12-17T03:21:30.980Z,10.31
2022-12-17T03:23:57.233Z,10.31
2022-12-17T03:26:23.515Z,10.33
2022-12-17T03:28:49.833Z,10.33
2022-12-17T03:31:16.306Z,10.32
2022-12-17T03:33:42.765Z,10.31
2022-12-17T03:36:09.012Z,10.30
2022-12-17T03:38:35.378Z,10.30
2022-12-17T03:41:01.709Z,10.29
2022-12-17T03:43:28.129Z,10.28
2022-12-17T03:45:54.504Z,10.28
2022-12-17T03:48:20.937Z,10.27
2022-12-17T03:50:47.266Z,10.27
2022-12-17T03:53:13.699Z,10.27
2022-12-17T03:55:40.094Z,10.27
2022-12-17T03:58:06.500Z,10.26
2022-12-17T04:00:32.834Z,10.27
2022-12-17T04:02:59.297Z,10.26
2022-12-17T04:05:25.723Z,10.26
2022-12-17T04:07:52.040Z,10.25
2022-12-17T04:10:18.388Z,10.26
2022-12-17T04:12:44.971Z,10.23
2022-12-17T04:15:11.280Z,10.22
2022-12-17T04:17:37.590Z,10.24
2022-12-17T04:20:03.964Z,10.23
2022-12-17T04:22:30.314Z,10.23
2022-12-17T04:24:56.652Z,10.21
2022-12-17T04:27:22.984Z,10.24
2022-12-17T04:29:49.377Z,10.22
2022-12-17T04:32:15.726Z,10.21
2022-12-17T04:34:41.999Z,10.20
2022-12-17T04:37:08.432Z,10.20
2022-12-17T04:39:34.772Z,10.20
2022-12-17T04:42:01.068Z,10.21
2022-12-17T04:44:27.347Z,10.19
2022-12-17T04:46:53.620Z,10.19
2022-12-17T04:49:19.878Z,10.19
2022-12-17T04:51:46.265Z,10.17
2022-12-17T04:54:12.592Z,10.16
2022-12-17T04:56:39.265Z,10.15
2022-12-17T04:59:05.561Z,10.16
2022-12-17T05:01:31.991Z,10.14
2022-12-17T05:03:58.400Z,10.15
2022-12-17T05:06:24.723Z,10.15
2022-12-17T05:08:51.290Z,10.14
2022-12-17T05:11:17.597Z,10.14
2022-12-17T05:13:44.185Z,10.13
2022-12-17T05:16:10.550Z,10.13
2022-12-17T05:18:36.990Z,10.13
2022-12-17T05:21:03.309Z,10.13
2022-12-17T05:23:29.731Z,10.11
2022-12-17T05:25:56.082Z,10.13
2022-12-17T05:28:22.379Z,10.11
2022-12-17T05:30:48.766Z,10.12
2022-12-17T05:33:15.312Z,10.12
2022-12-17T05:35:41.706Z,10.10
2022-12-17T05:38:08.156Z,10.10
2022-12-17T05:40:34.467Z,10.09
2022-12-17T05:43:00.993Z,10.09
2022-12-17T05:45:27.256Z,10.09
2022-12-17T05:47:53.544Z,10.09
2022-12-17T05:50:19.827Z,10.08
2022-12-17T05:52:46.381Z,10.06
2022-12-17T05:55:12.719Z,10.06
2022-12-17T05:57:39.144Z,10.07
2022-12-17T06:00:05.449Z,10.06
2022-12-17T06:02:31.836Z,10.06
2022-12-17T06:05:02.083Z,10.06
2022-12-17T06:07:28.935Z,10.05
2022-12-17T06:09:55.223Z,10.05
2022-12-17T06:12:21.659Z,10.05
2022-12-17T06:14:47.904Z,10.05
2022-12-17T06:17:14.259Z,10.05
2022-12-17T06:19:40.642Z,10.04
2022-12-17T06:22:06.959Z,10.04
2022-12-17T06:24:33.223Z,10.05
2022-12-17T06:26:59.599Z,10.04
2022-12-17T06:29:26.051Z,10.04
2022-12-17T06:31:52.457Z,10.04
2022-12-17T06:34:18.872Z,10.03
2022-12-17T06:36:45.255Z,10.02
2022-12-17T06:39:11.990Z,10.02
2022-12-17T06:41:38.352Z,10.01
2022-12-17T06:44:04.685Z,9.99
2022-12-17T06:46:31.013Z,9.99
2022-12-17T06:48:57.405Z,10.00
2022-12-17T06:51:23.820Z,10.00
2022-12-17T06:53:50.169Z,9.98
2022-12-17T06:56:16.526Z,10.01
2022-12-17T06:58:42.849Z,9.99
2022-12-17T07:01:09.273Z,9.99
2022-12-17T07:03:35.958Z,9.97
2022-12-17T07:06:02.544Z,9.98
2022-12-17T07:08:28.997Z,9.98
2022-12-17T07:10:55.247Z,9.97
2022-12-17T07:13:23.338Z,9.97
2022-12-17T07:15:49.780Z,9.96
2022-12-17T07:18:16.153Z,9.96
2022-12-17T07:20:42.437Z,9.96
2022-12-17T07:23:08.753Z,9.94
2022-12-17T07:25:35.036Z,9.94
2022-12-17T07:28:01.323Z,9.95
2022-12-17T07:30:27.660Z,9.94
2022-12-17T07:32:54.005Z,9.93
2022-12-17T07:35:20.585Z,9.93
2022-12-17T07:37:47.184Z,9.93
2022-12-17T07:40:13.623Z,9.94
2022-12-17T07:42:39.990Z,9.93
2022-12-17T07:45:06.339Z,9.92
2022-12-17T07:47:32.680Z,9.93
2022-12-17T07:50:00.153Z,9.92
2022-12-17T07:52:26.687Z,9.93
2022-12-17T07:54:53.032Z,9.92
2022-12-17T07:57:19.402Z,9.91
2022-12-17T07:59:45.841Z,9.91
2022-12-17T08:02:12.556Z,9.90
2022-12-17T08:04:38.962Z,9.90
2022-12-17T08:07:10.187Z,9.88
2022-12-17T08:09:38.541Z,9.88
2022-12-17T08:12:04.862Z,9.87
2022-12-17T08:14:31.333Z,9.88
2022-12-17T08:16:57.712Z,9.88
2022-12-17T08:19:24.069Z,9.87
2022-12-17T08:21:50.415Z,9.87
2022-12-17T08:24:16.893Z,9.88
2022-12-17T08:26:47.863Z,9.86
2022-12-17T08:29:14.743Z,9.86
2022-12-17T08:31:41.043Z,9.85
2022-12-17T08:34:08.230Z,9.86
2022-12-17T08:36:34.803Z,9.87
2022-12-17T08:39:01.174Z,9.84
2022-12-17T08:41:27.583Z,9.84
2022-12-17T08:43:53.972Z,9.84
2022-12-17T08:46:20.342Z,9.85
2022-12-17T08:48:46.806Z,9.84
2022-12-17T08:51:13.321Z,9.84
2022-12-17T08:53:39.971Z,9.82
2022-12-17T08:56:06.421Z,9.82
2022-12-17T08:58:32.985Z,9.81
2022-12-17T09:00:59.361Z,9.81
2022-12-17T09:03:25.775Z,9.81
2022-12-17T09:08:21.791Z,9.82
2022-12-17T09:10:48.075Z,9.79
2022-12-17T09:13:14.523Z,9.80
2022-12-17T09:15:40.796Z,9.80
2022-12-17T09:18:07.132Z,9.78
2022-12-17T09:20:33.369Z,9.77
2022-12-17T09:22:59.743Z,9.77
2022-12-17T09:28:01.125Z,9.77
2022-12-17T09:30:27.444Z,9.79
2022-12-17T09:32:53.725Z,9.77
2022-12-17T09:35:20.215Z,9.76
2022-12-17T09:37:46.620Z,9.76
2022-12-17T09:40:12.876Z,9.78
2022-12-17T09:42:39.425Z,9.80
2022-12-17T09:45:05.724Z,9.78
2022-12-17T09:47:32.033Z,9.77
2022-12-17T09:49:58.351Z,9.78
2022-12-17T09:52:24.627Z,9.78
2022-12-17T09:54:53.050Z,9.80
2022-12-17T09:57:22.795Z,9.79
2022-12-17T09:59:49.075Z,9.78
2022-12-17T10:02:15.678Z,9.81
2022-12-17T10:04:42.199Z,9.85
2022-12-17T10:07:08.827Z,9.82
2022-12-17T10:09:35.074Z,9.84
2022-12-17T10:12:01.303Z,9.84
2022-12-17T10:14:27.600Z,9.85
2022-12-17T10:16:53.879Z,9.87
2022-12-17T10:19:20.306Z,9.90
2022-12-17T10:21:46.602Z,9.97
2022-12-17T10:24:18.370Z,9.99
2022-12-17T10:26:44.878Z,10.05
2022-12-17T10:29:11.285Z,10.12
2022-12-17T10:31:37.753Z,10.22
2022-12-17T10:34:04.245Z,10.33
2022-12-17T10:36:30.690Z,10.41
2022-12-17T10:38:57.064Z,10.47
2022-12-17T10:41:23.342Z,10.56
2022-12-17T10:43:49.934Z,10.63
2022-12-17T10:48:45.593Z,10.77
2022-12-17T10:51:11.835Z,10.86
2022-12-17T11:04:01.574Z,11.13
2022-12-17T11:06:27.864Z,11.19
2022-12-17T11:08:54.197Z,11.23
2022-12-17T11:11:20.525Z,11.33
2022-12-17T11:13:46.889Z,11.36
2022-12-17T11:16:13.355Z,11.43
2022-12-17T11:18:39.745Z,11.48
2022-12-17T11:21:06.011Z,11.54
2022-12-17T11:23:32.332Z,11.56
2022-12-17T11:25:58.639Z,11.64
2022-12-17T11:28:25.017Z,11.66
2022-12-17T11:30:51.331Z,11.74
2022-12-17T11:33:17.700Z,11.81
2022-12-17T11:35:43.927Z,11.88
2022-12-17T11:38:10.228Z,11.92
2022-12-17T11:40:36.576Z,11.96
2022-12-17T11:43:03.258Z,12.03
2022-12-17T11:45:29.685Z,12.06
2022-12-17T11:47:59.411Z,12.13
2022-12-17T11:50:26.203Z,12.20
2022-12-17T11:52:52.677Z,12.30
2022-12-17T11:55:18.944Z,12.32
2022-12-17T11:57:45.292Z,12.38
2022-12-17T12:00:11.636Z,12.42
2022-12-17T12:02:38.076Z,12.42
2022-12-17T12:05:10.671Z,12.46
2022-12-17T12:07:37.002Z,12.52
2022-12-17T12:10:03.463Z,12.56
2022-12-17T12:12:29.879Z,12.72
2022-12-17T12:14:56.259Z,12.83
2022-12-17T12:17:22.553Z,13.13
2022-12-17T12:22:30.336Z,13.90
2022-12-17T12:24:57.060Z,14.11
2022-12-17T12:27:23.428Z,14.46
2022-12-17T12:37:47.650Z,15.37
2022-12-17T12:40:13.904Z,15.53
2022-12-17T12:42:40.296Z,15.70
2022-12-17T12:45:06.970Z,15.84
2022-12-17T12:47:36.944Z,15.99
2022-12-17T12:50:03.125Z,16.11
2022-12-17T12:52:29.295Z,16.30
2022-12-17T12:55:14.265Z,16.43
2022-12-17T12:57:40.521Z,16.57
2022-12-17T13:00:06.708Z,16.60
2022-12-17T13:02:33.045Z,16.73
2022-12-17T13:04:59.581Z,16.74
2022-12-17T13:07:27.426Z,16.58
2022-12-17T13:09:53.895Z,16.35
2022-12-17T13:12:20.179Z,16.18
2022-12-17T13:14:46.510Z,15.95
2022-12-17T13:17:12.776Z,15.77
2022-12-17T13:19:39.042Z,15.55
2022-12-17T13:22:05.294Z,15.36
2022-12-17T13:24:31.615Z,15.21
2022-12-17T13:26:57.842Z,15.07
2022-12-17T13:29:24.135Z,14.98
2022-12-17T13:31:50.480Z,14.90
2022-12-17T13:34:17.020Z,14.86
2022-12-17T13:36:43.740Z,14.76
2022-12-17T13:39:10.161Z,14.71
2022-12-17T13:41:54.925Z,14.68
2022-12-17T13:44:21.316Z,14.65
2022-12-17T13:46:48.087Z,14.61
2022-12-17T13:49:15.189Z,14.59
2022-12-17T13:51:41.391Z,14.58
2022-12-17T13:54:07.993Z,14.60
2022-12-17T13:56:34.846Z,14.56
2022-12-17T13:59:07.743Z,14.50
2022-12-17T14:01:35.458Z,14.52
2022-12-17T14:04:06.672Z,14.47
2022-12-17T14:06:33.567Z,14.47
2022-12-17T14:08:59.845Z,14.42
2022-12-17T14:11:26.446Z,14.42
2022-12-17T14:13:52.925Z,14.49
2022-12-17T14:16:19.261Z,14.66
2022-12-17T14:18:45.750Z,14.84
2022-12-17T14:31:48.744Z,16.00
2022-12-17T14:36:54.717Z,16.38
2022-12-17T14:39:21.066Z,16.45
2022-12-17T14:44:22.527Z,16.75
2022-12-17T14:49:24.008Z,17.00
2022-12-17T14:51:50.285Z,17.14
2022-12-17T14:54:16.752Z,17.26
2022-12-17T14:56:43.060Z,17.29
2022-12-17T14:59:09.372Z,17.41
2022-12-17T15:12:16.724Z,18.00
2022-12-17T15:14:43.135Z,18.07
2022-12-17T15:17:09.695Z,18.09
2022-12-17T15:19:36.302Z,18.18
2022-12-17T15:22:02.904Z,18.26
2022-12-17T15:24:29.261Z,18.37
2022-12-17T15:26:55.628Z,18.35
2022-12-17T15:29:22.174Z,18.48
2022-12-17T15:42:16.748Z,19.23
2022-12-17T15:44:43.056Z,19.34
2022-12-17T15:47:09.390Z,19.44
2022-12-17T15:49:35.757Z,19.59
2022-12-17T15:52:02.516Z,19.58
2022-12-17T15:54:28.895Z,19.61
2022-12-17T15:56:55.717Z,19.66
2022-12-17T15:59:22.358Z,19.79
2022-12-17T16:01:48.779Z,19.89
2022-12-17T16:04:20.300Z,19.91
2022-12-17T16:06:51.429Z,19.98
2022-12-17T16:09:18.054Z,20.03
2022-12-17T16:11:44.783Z,20.03
2022-12-17T16:14:11.393Z,20.12
2022-12-17T16:16:38.331Z,20.15
2022-12-17T16:19:05.211Z,20.21
2022-12-17T16:21:31.753Z,20.18
2022-12-17T16:23:58.093Z,19.82
2022-12-17T16:26:26.363Z,19.87
2022-12-17T16:28:53.249Z,19.93
2022-12-17T16:31:20.107Z,20.02
2022-12-17T16:33:47.024Z,20.14
2022-12-17T16:36:13.832Z,20.25
2022-12-17T16:38:40.614Z,20.32
2022-12-17T16:41:07.074Z,20.39
2022-12-17T16:43:33.999Z,20.43
2022-12-17T16:46:00.454Z,20.45
2022-12-17T16:48:27.231Z,20.51
2022-12-17T16:50:54.197Z,20.55
2022-12-17T16:58:28.816Z,20.68
2022-12-17T17:06:12.820Z,20.56
2022-12-17T17:08:40.060Z,20.62
2022-12-17T17:11:06.924Z,20.63
2022-12-17T17:13:33.226Z,20.59
2022-12-17T17:15:59.557Z,20.64
2022-12-17T17:18:26.325Z,20.67
2022-12-17T17:20:53.618Z,20.66
2022-12-17T17:25:57.853Z,20.70
2022-12-17T17:28:25.362Z,20.56
2022-12-17T17:30:52.592Z,20.50
2022-12-17T17:33:19.241Z,20.50
2022-12-17T17:35:46.188Z,20.38
2022-12-17T17:38:12.759Z,20.41
2022-12-17T17:40:39.198Z,20.39
2022-12-17T17:43:06.209Z,20.39
2022-12-17T17:45:32.562Z,20.34
2022-12-17T17:47:58.894Z,20.37
2022-12-17T17:50:25.557Z,20.17
2022-12-17T17:52:52.139Z,20.29
2022-12-17T17:55:18.505Z,20.30
2022-12-17T17:57:44.979Z,20.29
2022-12-17T18:00:11.395Z,20.32
2022-12-17T18:02:38.450Z,20.31
2022-12-17T18:05:05.251Z,20.40
2022-12-17T18:07:31.632Z,20.55
2022-12-17T18:09:58.192Z,20.69
2022-12-17T18:12:24.751Z,20.77
2022-12-17T18:15:13.790Z,20.89
2022-12-17T18:17:37.562Z,20.89
2022-12-17T18:22:44.887Z,20.95
2022-12-17T18:27:53.866Z,21.05
2022-12-17T18:30:20.845Z,21.12
2022-12-17T18:32:47.604Z,21.11
2022-12-17T18:35:14.139Z,21.08
2022-12-17T18:37:40.455Z,21.14
2022-12-17T18:40:06.857Z,21.22
2022-12-17T18:42:33.387Z,21.25
2022-12-17T18:44:59.818Z,21.28
2022-12-17T18:47:26.226Z,21.30
2022-12-17T18:49:53.062Z,21.35
2022-12-17T18:52:19.309Z,21.35
2022-12-17T19:00:09.888Z,21.46
2022-12-17T19:02:36.683Z,21.48
2022-12-17T19:07:38.916Z,21.55
2022-12-17T19:10:05.216Z,21.58
2022-12-17T19:12:31.856Z,21.59
2022-12-17T19:14:58.191Z,21.61
2022-12-17T19:17:24.632Z,21.59
2022-12-17T19:19:51.165Z,21.65
2022-12-17T19:22:17.458Z,21.68
2022-12-17T19:24:43.749Z,21.69
2022-12-17T19:27:10.473Z,21.61
2022-12-17T19:29:36.823Z,21.69
2022-12-17T19:32:03.220Z,21.70
2022-12-17T19:34:29.740Z,21.72
2022-12-17T19:36:56.150Z,21.74
2022-12-17T19:44:26.916Z,21.68
2022-12-17T19:46:53.504Z,21.70
2022-12-17T19:51:49.006Z,21.66
2022-12-17T19:59:29.943Z,21.70
2022-12-17T20:07:17.947Z,21.64
2022-12-17T20:09:44.244Z,21.42
2022-12-17T20:12:10.873Z,20.97
2022-12-17T20:14:37.307Z,20.88
2022-12-17T20:17:03.977Z,21.05
2022-12-17T20:19:30.661Z,21.19
2022-12-17T20:21:57.189Z,21.25
2022-12-17T20:24:30.516Z,21.30
2022-12-17T20:26:57.923Z,21.35
2022-12-17T20:29:24.399Z,21.40
2022-12-17T20:31:51.489Z,21.43
2022-12-17T20:34:17.839Z,21.45
2022-12-17T20:36:44.530Z,21.47
2022-12-17T20:39:10.925Z,21.49
2022-12-17T20:46:54.990Z,21.44
2022-12-17T20:49:21.233Z,21.41
2022-12-17T20:51:48.065Z,21.38
2022-12-17T20:54:14.661Z,21.39
2022-12-17T20:56:41.523Z,21.34
2022-12-17T20:59:07.846Z,21.31
2022-12-17T21:01:34.662Z,21.22
2022-12-17T21:04:01.012Z,21.20
2022-12-17T21:06:27.549Z,21.17
2022-12-17T21:08:53.890Z,21.14
2022-12-17T21:11:20.939Z,21.10
2022-12-17T21:13:47.572Z,21.05
2022-12-17T21:16:14.198Z,21.01
2022-12-17T21:18:41.213Z,20.96
2022-12-17T21:21:07.736Z,20.92
2022-12-17T21:23:34.440Z,20.91
2022-12-17T21:26:01.013Z,20.91
2022-12-17T21:28:28.174Z,20.84
2022-12-17T21:30:54.868Z,20.79
2022-12-17T21:33:21.767Z,20.67
2022-12-17T21:35:48.676Z,20.63
2022-12-17T21:38:14.992Z,20.62
2022-12-17T21:40:41.286Z,20.61
2022-12-17T21:43:07.978Z,20.59
2022-12-17T21:45:34.356Z,20.55
2022-12-17T21:48:01.082Z,20.49
2022-12-17T21:50:27.505Z,20.40
2022-12-17T21:52:53.854Z,20.37
2022-12-17T21:55:20.806Z,20.39
2022-12-17T21:57:47.824Z,20.42
2022-12-17T22:00:14.318Z,20.37
2022-12-17T22:02:41.022Z,20.27
2022-12-17T22:05:07.770Z,20.23
2022-12-17T22:07:35.474Z,20.21
2022-12-17T22:10:35.723Z,20.20
2022-12-17T22:12:56.324Z,20.18
2022-12-17T22:15:22.989Z,20.20
2022-12-17T22:17:53.372Z,20.13
2022-12-17T22:20:21.072Z,20.13
2022-12-17T22:22:47.676Z,20.07
2022-12-17T22:25:14.140Z,20.05
2022-12-17T22:27:40.530Z,20.02
2022-12-17T22:30:06.887Z,19.93
2022-12-17T22:32:33.120Z,19.95
2022-12-17T22:35:54.134Z,19.92
2022-12-17T22:39:44.839Z,19.92
2022-12-17T22:44:31.721Z,19.82
2022-12-17T22:44:42.779Z,19.80
2022-12-17T22:46:06.031Z,19.83
2022-12-17T22:48:33.096Z,19.84
2022-12-17T22:51:05.152Z,19.82
2022-12-17T22:53:46.012Z,19.77
2022-12-17T22:56:31.397Z,19.78
2022-12-17T22:58:59.303Z,19.74
2022-12-17T23:01:26.048Z,19.76
2022-12-17T23:03:52.897Z,19.71
2022-12-17T23:06:19.505Z,19.71
2022-12-17T23:08:45.771Z,19.70
2022-12-17T23:11:18.118Z,19.72
2022-12-17T23:13:44.430Z,19.67
2022-12-17T23:16:12.029Z,19.71
2022-12-17T23:18:38.538Z,19.66
2022-12-17T23:21:04.912Z,19.67
2022-12-17T23:23:31.996Z,19.68
2022-12-17T23:25:58.669Z,19.67
2022-12-17T23:28:25.000Z,19.68
2022-12-17T23:30:52.037Z,19.66
2022-12-17T23:33:18.394Z,19.63
2022-12-17T23:35:44.775Z,19.64
2022-12-17T23:38:11.089Z,19.63
2022-12-17T23:40:37.407Z,19.62
2022-12-17T23:43:03.846Z,19.62
2022-12-17T23:45:30.579Z,19.63
2022-12-17T23:47:57.461Z,19.63
2022-12-17T23:50:24.104Z,19.61
2022-12-17T23:52:50.418Z,19.61
2022-12-17T23:55:17.173Z,19.59
2022-12-17T23:57:43.575Z,19.57
